sensor_id;sensor_type;location;lat;lon;timestamp;temperature;humidity
21895;DHT22;11112;51.270;7.224;2023-07-16T00:01:01;22.40;92.60
21895;DHT22;11112;51.270;7.224;2023-07-16T00:03:28;22.40;92.60
21895;DHT22;11112;51.270;7.224;2023-07-16T00:05:55;22.40;92.60
21895;DHT22;11112;51.270;7.224;2023-07-16T00:08:24;22.40;92.60
21895;DHT22;11112;51.270;7.224;2023-07-16T00:10:51;22.40;92.70
21895;DHT22;11112;51.270;7.224;2023-07-16T00:13:20;22.40;92.80
21895;DHT22;11112;51.270;7.224;2023-07-16T00:15:49;22.30;92.80
21895;DHT22;11112;51.270;7.224;2023-07-16T00:18:17;22.30;92.80
21895;DHT22;11112;51.270;7.224;2023-07-16T00:20:44;22.30;93.00
21895;DHT22;11112;51.270;7.224;2023-07-16T00:23:11;22.30;93.00
21895;DHT22;11112;51.270;7.224;2023-07-16T00:25:39;22.30;93.00
21895;DHT22;11112;51.270;7.224;2023-07-16T00:28:07;22.30;93.00
21895;DHT22;11112;51.270;7.224;2023-07-16T00:30:39;22.30;93.00
21895;DHT22;11112;51.270;7.224;2023-07-16T00:33:06;22.30;93.00
21895;DHT22;11112;51.270;7.224;2023-07-16T00:35:34;22.20;92.90
21895;DHT22;11112;51.270;7.224;2023-07-16T00:38:01;22.20;92.90
21895;DHT22;11112;51.270;7.224;2023-07-16T00:40:28;22.20;92.70
21895;DHT22;11112;51.270;7.224;2023-07-16T00:42:58;22.20;92.70
21895;DHT22;11112;51.270;7.224;2023-07-16T00:45:25;22.20;92.80
21895;DHT22;11112;51.270;7.224;2023-07-16T00:47:57;22.20;92.80
21895;DHT22;11112;51.270;7.224;2023-07-16T00:50:27;22.10;92.80
21895;DHT22;11112;51.270;7.224;2023-07-16T00:52:56;22.10;92.60
21895;DHT22;11112;51.270;7.224;2023-07-16T00:55:23;22.10;92.70
21895;DHT22;11112;51.270;7.224;2023-07-16T00:57:51;22.10;92.70
21895;DHT22;11112;51.270;7.224;2023-07-16T01:00:18;22.10;92.70
21895;DHT22;11112;51.270;7.224;2023-07-16T01:02:46;22.10;92.60
21895;DHT22;11112;51.270;7.224;2023-07-16T01:05:16;22.10;92.60
21895;DHT22;11112;51.270;7.224;2023-07-16T01:07:48;22.00;92.40
21895;DHT22;11112;51.270;7.224;2023-07-16T01:10:20;22.00;92.50
21895;DHT22;11112;51.270;7.224;2023-07-16T01:12:50;22.00;92.50
21895;DHT22;11112;51.270;7.224;2023-07-16T01:15:17;22.00;92.60
21895;DHT22;11112;51.270;7.224;2023-07-16T01:17:44;22.00;92.80
21895;DHT22;11112;51.270;7.224;2023-07-16T01:20:11;22.00;93.00
21895;DHT22;11112;51.270;7.224;2023-07-16T01:22:52;22.00;93.00
21895;DHT22;11112;51.270;7.224;2023-07-16T01:26:05;22.00;93.10
21895;DHT22;11112;51.270;7.224;2023-07-16T01:31:45;22.00;93.30
21895;DHT22;11112;51.270;7.224;2023-07-16T01:34:14;22.00;93.30
21895;DHT22;11112;51.270;7.224;2023-07-16T01:36:41;22.00;93.30
21895;DHT22;11112;51.270;7.224;2023-07-16T01:39:09;22.00;93.40
21895;DHT22;11112;51.270;7.224;2023-07-16T01:41:37;22.00;93.40
21895;DHT22;11112;51.270;7.224;2023-07-16T01:44:06;22.00;93.40
21895;DHT22;11112;51.270;7.224;2023-07-16T01:46:35;22.00;93.50
21895;DHT22;11112;51.270;7.224;2023-07-16T01:49:02;22.00;93.50
21895;DHT22;11112;51.270;7.224;2023-07-16T01:51:30;22.00;93.50
21895;DHT22;11112;51.270;7.224;2023-07-16T01:53:57;22.00;93.50
21895;DHT22;11112;51.270;7.224;2023-07-16T01:56:24;22.00;93.50
21895;DHT22;11112;51.270;7.224;2023-07-16T01:58:51;22.00;93.50
21895;DHT22;11112;51.270;7.224;2023-07-16T02:01:21;22.00;93.50
21895;DHT22;11112;51.270;7.224;2023-07-16T02:03:50;22.00;93.50
21895;DHT22;11112;51.270;7.224;2023-07-16T02:06:18;22.00;93.50
21895;DHT22;11112;51.270;7.224;2023-07-16T02:08:45;22.00;93.40
21895;DHT22;11112;51.270;7.224;2023-07-16T02:11:12;21.90;93.40
21895;DHT22;11112;51.270;7.224;2023-07-16T02:13:39;22.00;93.40
21895;DHT22;11112;51.270;7.224;2023-07-16T02:16:07;22.00;93.40
21895;DHT22;11112;51.270;7.224;2023-07-16T02:18:34;22.00;93.30
21895;DHT22;11112;51.270;7.224;2023-07-16T02:21:04;22.00;93.30
21895;DHT22;11112;51.270;7.224;2023-07-16T02:23:32;22.00;93.20
21895;DHT22;11112;51.270;7.224;2023-07-16T02:26:00;22.00;93.00
21895;DHT22;11112;51.270;7.224;2023-07-16T02:28:27;21.90;93.00
21895;DHT22;11112;51.270;7.224;2023-07-16T02:30:55;21.90;93.00
21895;DHT22;11112;51.270;7.224;2023-07-16T02:33:23;21.90;92.90
21895;DHT22;11112;51.270;7.224;2023-07-16T02:35:50;21.90;92.80
21895;DHT22;11112;51.270;7.224;2023-07-16T02:38:19;21.80;92.70
21895;DHT22;11112;51.270;7.224;2023-07-16T02:40:50;21.80;92.70
21895;DHT22;11112;51.270;7.224;2023-07-16T02:43:17;21.80;92.60
21895;DHT22;11112;51.270;7.224;2023-07-16T02:45:44;21.90;92.60
21895;DHT22;11112;51.270;7.224;2023-07-16T02:48:11;21.80;92.40
21895;DHT22;11112;51.270;7.224;2023-07-16T02:50:41;21.80;92.30
21895;DHT22;11112;51.270;7.224;2023-07-16T02:53:09;21.80;92.20
21895;DHT22;11112;51.270;7.224;2023-07-16T02:55:38;21.80;92.10
21895;DHT22;11112;51.270;7.224;2023-07-16T02:58:07;21.80;92.00
21895;DHT22;11112;51.270;7.224;2023-07-16T03:00:34;21.80;91.90
21895;DHT22;11112;51.270;7.224;2023-07-16T03:03:03;21.70;91.80
21895;DHT22;11112;51.270;7.224;2023-07-16T03:05:33;21.70;91.50
21895;DHT22;11112;51.270;7.224;2023-07-16T03:08:01;21.70;91.40
21895;DHT22;11112;51.270;7.224;2023-07-16T03:10:28;21.70;91.10
21895;DHT22;11112;51.270;7.224;2023-07-16T03:12:58;21.70;91.00
21895;DHT22;11112;51.270;7.224;2023-07-16T03:15:25;21.70;90.90
21895;DHT22;11112;51.270;7.224;2023-07-16T03:17:54;21.70;90.90
21895;DHT22;11112;51.270;7.224;2023-07-16T03:20:21;21.70;90.80
21895;DHT22;11112;51.270;7.224;2023-07-16T03:22:48;21.60;90.60
21895;DHT22;11112;51.270;7.224;2023-07-16T03:25:16;21.60;90.50
21895;DHT22;11112;51.270;7.224;2023-07-16T03:27:43;21.60;90.40
21895;DHT22;11112;51.270;7.224;2023-07-16T03:30:13;21.60;90.40
21895;DHT22;11112;51.270;7.224;2023-07-16T03:32:41;21.60;90.30
21895;DHT22;11112;51.270;7.224;2023-07-16T03:35:11;21.50;90.20
21895;DHT22;11112;51.270;7.224;2023-07-16T03:37:38;21.60;90.10
21895;DHT22;11112;51.270;7.224;2023-07-16T03:40:13;21.60;90.10
21895;DHT22;11112;51.270;7.224;2023-07-16T03:42:42;21.60;90.00
21895;DHT22;11112;51.270;7.224;2023-07-16T03:45:12;21.60;89.90
21895;DHT22;11112;51.270;7.224;2023-07-16T03:47:42;21.50;89.30
21895;DHT22;11112;51.270;7.224;2023-07-16T03:50:10;21.50;89.40
21895;DHT22;11112;51.270;7.224;2023-07-16T03:52:37;21.50;89.10
21895;DHT22;11112;51.270;7.224;2023-07-16T03:55:07;21.50;88.90
21895;DHT22;11112;51.270;7.224;2023-07-16T03:57:34;21.40;88.80
21895;DHT22;11112;51.270;7.224;2023-07-16T04:00:04;21.40;88.80
21895;DHT22;11112;51.270;7.224;2023-07-16T04:02:37;21.40;88.60
21895;DHT22;11112;51.270;7.224;2023-07-16T04:05:05;21.40;88.40
21895;DHT22;11112;51.270;7.224;2023-07-16T04:07:33;21.40;88.40
21895;DHT22;11112;51.270;7.224;2023-07-16T04:10:00;21.40;88.50
21895;DHT22;11112;51.270;7.224;2023-07-16T04:12:29;21.40;88.30
21895;DHT22;11112;51.270;7.224;2023-07-16T04:14:58;21.40;87.60
21895;DHT22;11112;51.270;7.224;2023-07-16T04:17:26;21.30;87.70
21895;DHT22;11112;51.270;7.224;2023-07-16T04:19:57;21.40;87.80
21895;DHT22;11112;51.270;7.224;2023-07-16T04:22:25;21.40;87.50
21895;DHT22;11112;51.270;7.224;2023-07-16T04:24:54;21.40;87.30
21895;DHT22;11112;51.270;7.224;2023-07-16T04:27:24;21.30;87.00
21895;DHT22;11112;51.270;7.224;2023-07-16T04:29:51;21.30;87.00
21895;DHT22;11112;51.270;7.224;2023-07-16T04:32:19;21.30;86.80
21895;DHT22;11112;51.270;7.224;2023-07-16T04:34:47;21.30;86.40
21895;DHT22;11112;51.270;7.224;2023-07-16T04:37:16;21.40;86.50
21895;DHT22;11112;51.270;7.224;2023-07-16T04:39:44;21.30;86.40
21895;DHT22;11112;51.270;7.224;2023-07-16T04:42:13;21.30;85.90
21895;DHT22;11112;51.270;7.224;2023-07-16T04:44:42;21.30;87.00
21895;DHT22;11112;51.270;7.224;2023-07-16T04:47:09;21.40;86.00
21895;DHT22;11112;51.270;7.224;2023-07-16T04:49:38;21.40;85.80
21895;DHT22;11112;51.270;7.224;2023-07-16T04:52:07;21.40;85.90
21895;DHT22;11112;51.270;7.224;2023-07-16T04:54:37;21.40;85.70
21895;DHT22;11112;51.270;7.224;2023-07-16T04:57:06;21.40;85.50
21895;DHT22;11112;51.270;7.224;2023-07-16T04:59:34;21.40;85.20
21895;DHT22;11112;51.270;7.224;2023-07-16T05:02:04;21.50;85.00
21895;DHT22;11112;51.270;7.224;2023-07-16T05:04:32;21.50;85.00
21895;DHT22;11112;51.270;7.224;2023-07-16T05:07:01;21.60;84.90
21895;DHT22;11112;51.270;7.224;2023-07-16T05:09:29;21.60;84.40
21895;DHT22;11112;51.270;7.224;2023-07-16T05:11:58;21.70;84.50
21895;DHT22;11112;51.270;7.224;2023-07-16T05:14:26;21.70;84.30
21895;DHT22;11112;51.270;7.224;2023-07-16T05:16:55;21.80;84.50
21895;DHT22;11112;51.270;7.224;2023-07-16T05:19:23;21.90;84.00
21895;DHT22;11112;51.270;7.224;2023-07-16T05:21:51;21.90;83.50
21895;DHT22;11112;51.270;7.224;2023-07-16T05:24:19;21.90;83.60
21895;DHT22;11112;51.270;7.224;2023-07-16T05:26:46;22.00;83.30
21895;DHT22;11112;51.270;7.224;2023-07-16T05:29:15;22.00;82.60
21895;DHT22;11112;51.270;7.224;2023-07-16T05:31:43;21.90;82.50
21895;DHT22;11112;51.270;7.224;2023-07-16T05:34:12;22.00;82.60
21895;DHT22;11112;51.270;7.224;2023-07-16T05:36:41;22.00;82.20
21895;DHT22;11112;51.270;7.224;2023-07-16T05:39:09;21.90;82.10
21895;DHT22;11112;51.270;7.224;2023-07-16T05:41:38;21.80;82.30
21895;DHT22;11112;51.270;7.224;2023-07-16T05:44:07;21.70;83.60
21895;DHT22;11112;51.270;7.224;2023-07-16T05:46:35;21.70;82.80
21895;DHT22;11112;51.270;7.224;2023-07-16T05:49:04;21.70;82.80
21895;DHT22;11112;51.270;7.224;2023-07-16T05:51:31;21.70;82.00
21895;DHT22;11112;51.270;7.224;2023-07-16T05:53:58;21.70;82.20
21895;DHT22;11112;51.270;7.224;2023-07-16T05:56:27;21.80;83.00
21895;DHT22;11112;51.270;7.224;2023-07-16T05:58:56;21.80;82.50
21895;DHT22;11112;51.270;7.224;2023-07-16T06:01:25;21.80;82.90
21895;DHT22;11112;51.270;7.224;2023-07-16T06:03:55;21.80;82.70
21895;DHT22;11112;51.270;7.224;2023-07-16T06:06:23;21.80;82.60
21895;DHT22;11112;51.270;7.224;2023-07-16T06:08:51;21.80;82.10
21895;DHT22;11112;51.270;7.224;2023-07-16T06:11:20;21.70;82.80
21895;DHT22;11112;51.270;7.224;2023-07-16T06:13:47;21.80;81.90
21895;DHT22;11112;51.270;7.224;2023-07-16T06:16:16;21.80;81.70
21895;DHT22;11112;51.270;7.224;2023-07-16T06:18:43;21.70;81.30
21895;DHT22;11112;51.270;7.224;2023-07-16T06:21:12;21.70;81.90
21895;DHT22;11112;51.270;7.224;2023-07-16T06:23:42;21.60;81.10
21895;DHT22;11112;51.270;7.224;2023-07-16T06:26:09;21.60;81.40
21895;DHT22;11112;51.270;7.224;2023-07-16T06:28:37;21.70;81.20
21895;DHT22;11112;51.270;7.224;2023-07-16T06:31:05;21.60;81.10
21895;DHT22;11112;51.270;7.224;2023-07-16T06:33:34;21.70;80.90
21895;DHT22;11112;51.270;7.224;2023-07-16T06:36:01;21.80;80.80
21895;DHT22;11112;51.270;7.224;2023-07-16T06:38:31;21.90;80.30
21895;DHT22;11112;51.270;7.224;2023-07-16T06:40:58;21.90;79.40
21895;DHT22;11112;51.270;7.224;2023-07-16T06:43:25;21.90;79.50
21895;DHT22;11112;51.270;7.224;2023-07-16T06:45:53;22.00;79.40
21895;DHT22;11112;51.270;7.224;2023-07-16T06:48:22;22.00;78.80
21895;DHT22;11112;51.270;7.224;2023-07-16T06:50:50;22.10;78.50
21895;DHT22;11112;51.270;7.224;2023-07-16T06:53:17;22.20;78.20
21895;DHT22;11112;51.270;7.224;2023-07-16T06:55:47;22.20;77.70
21895;DHT22;11112;51.270;7.224;2023-07-16T06:58:15;22.30;77.50
21895;DHT22;11112;51.270;7.224;2023-07-16T07:00:43;22.40;77.00
21895;DHT22;11112;51.270;7.224;2023-07-16T07:03:11;22.50;77.40
21895;DHT22;11112;51.270;7.224;2023-07-16T07:05:41;22.50;76.20
21895;DHT22;11112;51.270;7.224;2023-07-16T07:08:08;22.50;76.70
21895;DHT22;11112;51.270;7.224;2023-07-16T07:10:36;22.60;76.80
21895;DHT22;11112;51.270;7.224;2023-07-16T07:13:06;22.70;76.00
21895;DHT22;11112;51.270;7.224;2023-07-16T07:15:33;22.70;75.70
21895;DHT22;11112;51.270;7.224;2023-07-16T07:18:00;22.70;75.50
21895;DHT22;11112;51.270;7.224;2023-07-16T07:20:29;22.80;75.30
21895;DHT22;11112;51.270;7.224;2023-07-16T07:22:57;22.90;75.10
21895;DHT22;11112;51.270;7.224;2023-07-16T07:25:27;22.90;74.30
21895;DHT22;11112;51.270;7.224;2023-07-16T07:27:54;23.50;73.60
21895;DHT22;11112;51.270;7.224;2023-07-16T07:30:24;25.50;70.40
21895;DHT22;11112;51.270;7.224;2023-07-16T07:32:53;26.50;65.20
21895;DHT22;11112;51.270;7.224;2023-07-16T07:35:20;25.90;64.60
21895;DHT22;11112;51.270;7.224;2023-07-16T07:37:48;25.30;65.90
21895;DHT22;11112;51.270;7.224;2023-07-16T07:40:15;24.70;66.50
21895;DHT22;11112;51.270;7.224;2023-07-16T07:42:43;24.40;67.00
21895;DHT22;11112;51.270;7.224;2023-07-16T07:45:10;24.10;67.40
21895;DHT22;11112;51.270;7.224;2023-07-16T07:47:39;23.80;67.30
21895;DHT22;11112;51.270;7.224;2023-07-16T07:50:08;23.70;69.30
21895;DHT22;11112;51.270;7.224;2023-07-16T07:52:38;23.60;68.10
21895;DHT22;11112;51.270;7.224;2023-07-16T07:55:06;23.50;68.30
21895;DHT22;11112;51.270;7.224;2023-07-16T07:57:35;23.50;68.00
21895;DHT22;11112;51.270;7.224;2023-07-16T08:00:03;23.50;68.40
21895;DHT22;11112;51.270;7.224;2023-07-16T08:02:31;23.50;68.50
21895;DHT22;11112;51.270;7.224;2023-07-16T08:04:59;23.50;68.80
21895;DHT22;11112;51.270;7.224;2023-07-16T08:07:27;23.50;68.70
21895;DHT22;11112;51.270;7.224;2023-07-16T08:09:55;23.50;67.80
21895;DHT22;11112;51.270;7.224;2023-07-16T08:12:22;23.40;68.10
21895;DHT22;11112;51.270;7.224;2023-07-16T08:14:49;23.50;68.80
21895;DHT22;11112;51.270;7.224;2023-07-16T08:17:17;23.40;69.00
21895;DHT22;11112;51.270;7.224;2023-07-16T08:19:44;23.40;68.20
21895;DHT22;11112;51.270;7.224;2023-07-16T08:22:13;23.40;68.40
21895;DHT22;11112;51.270;7.224;2023-07-16T08:24:40;23.40;68.20
21895;DHT22;11112;51.270;7.224;2023-07-16T08:27:08;23.40;68.10
21895;DHT22;11112;51.270;7.224;2023-07-16T08:29:36;23.40;67.90
21895;DHT22;11112;51.270;7.224;2023-07-16T08:32:05;23.50;68.40
21895;DHT22;11112;51.270;7.224;2023-07-16T08:34:32;23.40;68.00
21895;DHT22;11112;51.270;7.224;2023-07-16T08:37:01;23.40;67.80
21895;DHT22;11112;51.270;7.224;2023-07-16T08:39:31;23.40;68.10
21895;DHT22;11112;51.270;7.224;2023-07-16T08:42:01;23.40;67.90
21895;DHT22;11112;51.270;7.224;2023-07-16T08:44:30;23.30;68.80
21895;DHT22;11112;51.270;7.224;2023-07-16T08:46:57;23.30;67.80
21895;DHT22;11112;51.270;7.224;2023-07-16T08:49:29;23.40;68.30
21895;DHT22;11112;51.270;7.224;2023-07-16T08:51:57;23.40;67.60
21895;DHT22;11112;51.270;7.224;2023-07-16T08:54:27;23.30;68.10
21895;DHT22;11112;51.270;7.224;2023-07-16T08:56:57;23.30;68.20
21895;DHT22;11112;51.270;7.224;2023-07-16T08:59:26;23.30;68.40
21895;DHT22;11112;51.270;7.224;2023-07-16T09:01:54;23.20;68.20
21895;DHT22;11112;51.270;7.224;2023-07-16T09:04:23;23.20;69.90
21895;DHT22;11112;51.270;7.224;2023-07-16T09:06:50;23.20;68.60
21895;DHT22;11112;51.270;7.224;2023-07-16T09:09:21;23.20;68.70
21895;DHT22;11112;51.270;7.224;2023-07-16T09:11:49;23.30;69.50
21895;DHT22;11112;51.270;7.224;2023-07-16T09:14:19;23.30;68.80
21895;DHT22;11112;51.270;7.224;2023-07-16T09:16:49;23.30;68.90
21895;DHT22;11112;51.270;7.224;2023-07-16T09:19:18;23.30;67.40
21895;DHT22;11112;51.270;7.224;2023-07-16T09:21:48;23.30;68.30
21895;DHT22;11112;51.270;7.224;2023-07-16T09:24:16;23.20;67.70
21895;DHT22;11112;51.270;7.224;2023-07-16T09:26:50;23.20;67.90
21895;DHT22;11112;51.270;7.224;2023-07-16T09:29:20;23.20;68.10
21895;DHT22;11112;51.270;7.224;2023-07-16T09:31:54;23.30;69.20
21895;DHT22;11112;51.270;7.224;2023-07-16T09:34:22;23.30;68.20
21895;DHT22;11112;51.270;7.224;2023-07-16T09:36:51;23.30;68.30
21895;DHT22;11112;51.270;7.224;2023-07-16T09:39:20;23.20;67.70
21895;DHT22;11112;51.270;7.224;2023-07-16T09:41:48;23.20;67.50
21895;DHT22;11112;51.270;7.224;2023-07-16T09:44:16;23.10;67.90
21895;DHT22;11112;51.270;7.224;2023-07-16T09:46:46;23.10;68.00
21895;DHT22;11112;51.270;7.224;2023-07-16T09:49:15;23.10;68.00
21895;DHT22;11112;51.270;7.224;2023-07-16T09:51:43;23.20;67.60
21895;DHT22;11112;51.270;7.224;2023-07-16T09:54:13;23.20;67.80
21895;DHT22;11112;51.270;7.224;2023-07-16T09:56:45;23.20;68.00
21895;DHT22;11112;51.270;7.224;2023-07-16T09:59:16;23.20;67.90
21895;DHT22;11112;51.270;7.224;2023-07-16T10:01:50;23.20;68.70
21895;DHT22;11112;51.270;7.224;2023-07-16T10:04:19;23.30;68.30
21895;DHT22;11112;51.270;7.224;2023-07-16T10:06:54;23.30;67.50
21895;DHT22;11112;51.270;7.224;2023-07-16T10:09:35;23.30;68.30
21895;DHT22;11112;51.270;7.224;2023-07-16T10:12:14;23.40;67.80
21895;DHT22;11112;51.270;7.224;2023-07-16T10:14:44;23.40;67.00
21895;DHT22;11112;51.270;7.224;2023-07-16T10:17:17;23.40;68.10
21895;DHT22;11112;51.270;7.224;2023-07-16T10:19:57;23.50;68.40
21895;DHT22;11112;51.270;7.224;2023-07-16T10:22:36;23.50;68.40
21895;DHT22;11112;51.270;7.224;2023-07-16T10:25:08;23.50;67.80
21895;DHT22;11112;51.270;7.224;2023-07-16T10:27:37;23.50;67.20
21895;DHT22;11112;51.270;7.224;2023-07-16T10:30:07;23.50;67.20
21895;DHT22;11112;51.270;7.224;2023-07-16T10:32:36;23.50;68.20
21895;DHT22;11112;51.270;7.224;2023-07-16T10:35:04;23.50;67.60
21895;DHT22;11112;51.270;7.224;2023-07-16T10:37:34;23.60;67.60
21895;DHT22;11112;51.270;7.224;2023-07-16T10:40:03;23.60;66.40
21895;DHT22;11112;51.270;7.224;2023-07-16T10:42:32;23.60;66.50
21895;DHT22;11112;51.270;7.224;2023-07-16T10:45:01;23.60;66.80
21895;DHT22;11112;51.270;7.224;2023-07-16T10:47:31;23.60;67.10
21895;DHT22;11112;51.270;7.224;2023-07-16T10:50:04;23.60;66.90
21895;DHT22;11112;51.270;7.224;2023-07-16T10:52:33;23.60;66.60
21895;DHT22;11112;51.270;7.224;2023-07-16T10:55:00;23.60;66.80
21895;DHT22;11112;51.270;7.224;2023-07-16T10:57:28;23.60;67.80
21895;DHT22;11112;51.270;7.224;2023-07-16T10:59:57;23.60;67.00
21895;DHT22;11112;51.270;7.224;2023-07-16T11:02:26;23.60;67.20
21895;DHT22;11112;51.270;7.224;2023-07-16T11:04:53;23.60;67.20
21895;DHT22;11112;51.270;7.224;2023-07-16T11:07:26;23.60;67.30
21895;DHT22;11112;51.270;7.224;2023-07-16T11:09:55;23.60;67.30
21895;DHT22;11112;51.270;7.224;2023-07-16T11:12:24;23.60;67.50
21895;DHT22;11112;51.270;7.224;2023-07-16T11:14:53;23.60;68.10
21895;DHT22;11112;51.270;7.224;2023-07-16T11:17:22;23.60;67.10
21895;DHT22;11112;51.270;7.224;2023-07-16T11:19:55;23.70;67.20
21895;DHT22;11112;51.270;7.224;2023-07-16T11:22:39;23.60;67.70
21895;DHT22;11112;51.270;7.224;2023-07-16T11:25:10;23.60;66.80
21895;DHT22;11112;51.270;7.224;2023-07-16T11:27:41;23.60;67.10
21895;DHT22;11112;51.270;7.224;2023-07-16T11:30:10;23.60;67.60
21895;DHT22;11112;51.270;7.224;2023-07-16T11:32:43;23.70;67.50
21895;DHT22;11112;51.270;7.224;2023-07-16T11:35:15;23.70;67.30
21895;DHT22;11112;51.270;7.224;2023-07-16T11:37:45;23.70;67.50
21895;DHT22;11112;51.270;7.224;2023-07-16T11:40:17;23.60;67.30
21895;DHT22;11112;51.270;7.224;2023-07-16T11:42:45;23.60;67.50
21895;DHT22;11112;51.270;7.224;2023-07-16T11:45:17;23.70;67.70
21895;DHT22;11112;51.270;7.224;2023-07-16T11:47:45;23.70;66.70
21895;DHT22;11112;51.270;7.224;2023-07-16T11:50:12;23.70;67.10
21895;DHT22;11112;51.270;7.224;2023-07-16T11:52:41;23.70;66.40
21895;DHT22;11112;51.270;7.224;2023-07-16T11:55:10;23.80;67.10
21895;DHT22;11112;51.270;7.224;2023-07-16T11:57:37;23.80;67.30
21895;DHT22;11112;51.270;7.224;2023-07-16T12:00:06;23.80;67.20
21895;DHT22;11112;51.270;7.224;2023-07-16T12:02:34;23.80;67.30
21895;DHT22;11112;51.270;7.224;2023-07-16T12:05:01;23.80;67.10
21895;DHT22;11112;51.270;7.224;2023-07-16T12:07:34;23.80;66.80
21895;DHT22;11112;51.270;7.224;2023-07-16T12:10:06;23.80;66.60
21895;DHT22;11112;51.270;7.224;2023-07-16T12:12:36;23.80;66.60
21895;DHT22;11112;51.270;7.224;2023-07-16T12:15:04;23.80;66.50
21895;DHT22;11112;51.270;7.224;2023-07-16T12:17:32;23.70;66.80
21895;DHT22;11112;51.270;7.224;2023-07-16T12:20:00;23.80;66.90
21895;DHT22;11112;51.270;7.224;2023-07-16T12:22:29;23.70;67.00
21895;DHT22;11112;51.270;7.224;2023-07-16T12:24:57;23.80;67.50
21895;DHT22;11112;51.270;7.224;2023-07-16T12:27:24;23.70;66.20
21895;DHT22;11112;51.270;7.224;2023-07-16T12:29:53;23.70;66.40
21895;DHT22;11112;51.270;7.224;2023-07-16T12:32:20;23.70;66.20
21895;DHT22;11112;51.270;7.224;2023-07-16T12:34:47;23.70;66.10
21895;DHT22;11112;51.270;7.224;2023-07-16T12:37:15;23.70;67.30
21895;DHT22;11112;51.270;7.224;2023-07-16T12:39:42;23.70;66.70
21895;DHT22;11112;51.270;7.224;2023-07-16T12:42:10;23.70;67.20
21895;DHT22;11112;51.270;7.224;2023-07-16T12:44:38;23.70;65.80
21895;DHT22;11112;51.270;7.224;2023-07-16T12:47:07;23.60;66.60
21895;DHT22;11112;51.270;7.224;2023-07-16T12:49:35;23.70;66.80
21895;DHT22;11112;51.270;7.224;2023-07-16T12:52:02;23.70;66.70
21895;DHT22;11112;51.270;7.224;2023-07-16T12:54:30;23.60;66.60
21895;DHT22;11112;51.270;7.224;2023-07-16T12:56:57;23.60;66.30
21895;DHT22;11112;51.270;7.224;2023-07-16T12:59:25;23.60;66.40
21895;DHT22;11112;51.270;7.224;2023-07-16T13:01:52;23.60;66.60
21895;DHT22;11112;51.270;7.224;2023-07-16T13:04:21;23.70;66.90
21895;DHT22;11112;51.270;7.224;2023-07-16T13:06:49;23.70;67.10
21895;DHT22;11112;51.270;7.224;2023-07-16T13:09:16;23.70;67.00
21895;DHT22;11112;51.270;7.224;2023-07-16T13:11:45;23.70;67.20
21895;DHT22;11112;51.270;7.224;2023-07-16T13:14:12;23.70;67.30
21895;DHT22;11112;51.270;7.224;2023-07-16T13:16:40;23.80;67.20
21895;DHT22;11112;51.270;7.224;2023-07-16T13:19:08;23.80;67.20
21895;DHT22;11112;51.270;7.224;2023-07-16T13:21:38;23.80;67.00
21895;DHT22;11112;51.270;7.224;2023-07-16T13:24:07;23.70;67.10
21895;DHT22;11112;51.270;7.224;2023-07-16T13:26:34;23.70;66.80
21895;DHT22;11112;51.270;7.224;2023-07-16T13:29:02;23.70;67.00
21895;DHT22;11112;51.270;7.224;2023-07-16T13:31:29;23.70;67.20
21895;DHT22;11112;51.270;7.224;2023-07-16T13:33:57;23.70;66.50
21895;DHT22;11112;51.270;7.224;2023-07-16T13:36:24;23.70;65.80
21895;DHT22;11112;51.270;7.224;2023-07-16T13:38:52;23.80;65.90
21895;DHT22;11112;51.270;7.224;2023-07-16T13:41:19;23.80;65.00
21895;DHT22;11112;51.270;7.224;2023-07-16T13:43:47;23.80;65.30
21895;DHT22;11112;51.270;7.224;2023-07-16T13:46:14;23.80;64.80
21895;DHT22;11112;51.270;7.224;2023-07-16T13:48:41;23.80;64.70
21895;DHT22;11112;51.270;7.224;2023-07-16T13:51:09;23.80;64.80
21895;DHT22;11112;51.270;7.224;2023-07-16T13:53:36;23.80;64.20
21895;DHT22;11112;51.270;7.224;2023-07-16T13:56:06;23.80;63.80
21895;DHT22;11112;51.270;7.224;2023-07-16T13:58:34;23.80;63.80
21895;DHT22;11112;51.270;7.224;2023-07-16T14:01:01;23.80;64.60
21895;DHT22;11112;51.270;7.224;2023-07-16T14:03:31;23.90;62.80
21895;DHT22;11112;51.270;7.224;2023-07-16T14:05:59;23.90;63.40
21895;DHT22;11112;51.270;7.224;2023-07-16T14:08:26;23.90;62.60
21895;DHT22;11112;51.270;7.224;2023-07-16T14:10:54;23.90;62.20
21895;DHT22;11112;51.270;7.224;2023-07-16T14:13:23;23.90;62.50
21895;DHT22;11112;51.270;7.224;2023-07-16T14:15:50;23.90;62.60
21895;DHT22;11112;51.270;7.224;2023-07-16T14:18:18;23.90;62.80
21895;DHT22;11112;51.270;7.224;2023-07-16T14:20:45;23.90;62.50
21895;DHT22;11112;51.270;7.224;2023-07-16T14:23:12;23.90;62.90
21895;DHT22;11112;51.270;7.224;2023-07-16T14:25:40;23.90;62.80
21895;DHT22;11112;51.270;7.224;2023-07-16T14:28:07;23.90;63.30
21895;DHT22;11112;51.270;7.224;2023-07-16T14:30:36;23.90;62.90
21895;DHT22;11112;51.270;7.224;2023-07-16T14:33:04;23.90;63.00
21895;DHT22;11112;51.270;7.224;2023-07-16T14:35:33;23.90;62.60
21895;DHT22;11112;51.270;7.224;2023-07-16T14:38:00;23.90;63.30
21895;DHT22;11112;51.270;7.224;2023-07-16T14:40:28;23.90;64.20
21895;DHT22;11112;51.270;7.224;2023-07-16T14:42:55;23.80;64.00
21895;DHT22;11112;51.270;7.224;2023-07-16T14:45:23;23.80;64.80
21895;DHT22;11112;51.270;7.224;2023-07-16T14:47:52;23.90;64.30
21895;DHT22;11112;51.270;7.224;2023-07-16T14:50:19;23.90;65.00
21895;DHT22;11112;51.270;7.224;2023-07-16T14:52:48;23.90;64.50
21895;DHT22;11112;51.270;7.224;2023-07-16T14:55:15;23.90;65.00
21895;DHT22;11112;51.270;7.224;2023-07-16T14:57:45;23.90;65.00
21895;DHT22;11112;51.270;7.224;2023-07-16T15:00:29;24.00;65.30
21895;DHT22;11112;51.270;7.224;2023-07-16T15:02:59;23.90;65.50
21895;DHT22;11112;51.270;7.224;2023-07-16T15:05:27;24.00;65.10
21895;DHT22;11112;51.270;7.224;2023-07-16T15:07:55;24.00;65.20
21895;DHT22;11112;51.270;7.224;2023-07-16T15:10:22;24.00;65.40
21895;DHT22;11112;51.270;7.224;2023-07-16T15:12:49;24.00;65.30
21895;DHT22;11112;51.270;7.224;2023-07-16T15:15:17;24.00;65.50
21895;DHT22;11112;51.270;7.224;2023-07-16T15:17:44;24.00;65.70
21895;DHT22;11112;51.270;7.224;2023-07-16T15:20:14;24.00;65.70
21895;DHT22;11112;51.270;7.224;2023-07-16T15:22:48;24.00;65.50
21895;DHT22;11112;51.270;7.224;2023-07-16T15:25:15;24.00;65.20
21895;DHT22;11112;51.270;7.224;2023-07-16T15:27:45;24.00;65.60
21895;DHT22;11112;51.270;7.224;2023-07-16T15:30:12;24.00;65.80
21895;DHT22;11112;51.270;7.224;2023-07-16T15:32:39;23.90;65.80
21895;DHT22;11112;51.270;7.224;2023-07-16T15:35:08;23.90;65.90
21895;DHT22;11112;51.270;7.224;2023-07-16T15:37:36;24.00;65.80
21895;DHT22;11112;51.270;7.224;2023-07-16T15:40:13;24.00;65.70
21895;DHT22;11112;51.270;7.224;2023-07-16T15:42:42;24.00;65.50